createdAt,value
2023-03-04T00:02:16.326Z,20.49
2023-03-04T00:04:43.041Z,20.49
2023-03-04T00:07:09.593Z,20.49
2023-03-04T00:09:36.370Z,20.47
2023-03-04T00:12:02.936Z,20.49
2023-03-04T00:14:30.580Z,20.48
2023-03-04T00:16:57.219Z,20.47
2023-03-04T00:19:24.024Z,20.36
2023-03-04T00:21:50.894Z,20.49
2023-03-04T00:24:17.510Z,20.47
2023-03-04T00:26:44.384Z,20.45
2023-03-04T00:29:11.015Z,20.48
2023-03-04T00:31:37.625Z,20.49
2023-03-04T00:34:04.286Z,20.46
2023-03-04T00:36:31.015Z,20.47
2023-03-04T00:38:57.577Z,20.49
2023-03-04T00:41:24.152Z,20.47
2023-03-04T00:43:51.012Z,20.16
2023-03-04T00:46:17.684Z,20.47
2023-03-04T00:48:44.295Z,20.47
2023-03-04T00:51:10.813Z,20.45
2023-03-04T00:53:37.420Z,20.46
2023-03-04T00:56:04.188Z,20.46
2023-03-04T00:58:30.958Z,20.46
2023-03-04T01:00:58.603Z,20.45
2023-03-04T01:03:26.888Z,20.45
2023-03-04T01:05:53.414Z,20.46
2023-03-04T01:08:19.962Z,20.45
2023-03-04T01:10:46.490Z,20.44
2023-03-04T01:13:13.397Z,20.45
2023-03-04T01:15:39.951Z,20.44
2023-03-04T01:18:06.637Z,20.44
2023-03-04T01:20:33.187Z,20.45
2023-03-04T01:22:59.758Z,20.45
2023-03-04T01:25:26.534Z,20.44
2023-03-04T01:27:53.229Z,20.44
2023-03-04T01:30:19.840Z,20.44
2023-03-04T01:32:46.439Z,20.43
2023-03-04T01:35:12.924Z,20.43
2023-03-04T01:37:39.598Z,20.43
2023-03-04T01:40:07.063Z,20.43
2023-03-04T01:42:35.854Z,20.35
2023-03-04T01:45:03.172Z,20.43
2023-03-04T01:47:32.618Z,20.43
2023-03-04T01:50:05.021Z,20.41
2023-03-04T01:52:31.650Z,20.43
2023-03-04T01:54:58.471Z,20.41
2023-03-04T01:57:26.453Z,20.41
2023-03-04T02:00:20.220Z,20.41
2023-03-04T02:02:52.666Z,20.40
2023-03-04T02:05:19.594Z,20.41
2023-03-04T02:07:46.375Z,20.40
2023-03-04T02:10:13.175Z,20.41
2023-03-04T02:12:40.474Z,20.41
2023-03-04T02:15:08.123Z,20.40
2023-03-04T02:17:34.879Z,20.40
2023-03-04T02:20:26.047Z,20.29
2023-03-04T02:23:11.410Z,20.40
2023-03-04T02:25:45.559Z,20.39
2023-03-04T02:28:12.463Z,20.39
2023-03-04T02:30:39.151Z,20.39
2023-03-04T02:33:05.972Z,20.39
2023-03-04T02:35:32.889Z,20.33
2023-03-04T02:37:59.516Z,20.38
2023-03-04T02:40:33.412Z,20.38
2023-03-04T02:43:01.149Z,20.37
2023-03-04T02:45:36.126Z,20.28
2023-03-04T02:48:06.224Z,20.34
2023-03-04T02:50:37.606Z,20.34
2023-03-04T02:53:04.960Z,20.30
2023-03-04T02:55:32.267Z,20.37
2023-03-04T02:57:59.943Z,20.37
2023-03-04T03:00:27.953Z,20.37
2023-03-04T03:02:57.010Z,20.36
2023-03-04T03:05:27.175Z,20.36
2023-03-04T03:07:55.268Z,20.33
2023-03-04T03:10:24.139Z,20.35
2023-03-04T03:12:51.712Z,20.35
2023-03-04T03:15:20.284Z,20.36
2023-03-04T03:17:47.366Z,20.35
2023-03-04T03:20:15.710Z,20.35
2023-03-04T03:22:42.911Z,20.34
2023-03-04T03:25:11.661Z,20.25
2023-03-04T03:27:38.358Z,20.34
2023-03-04T03:30:06.245Z,20.27
2023-03-04T03:32:35.782Z,20.35
2023-03-04T03:35:02.431Z,20.33
2023-03-04T03:37:29.066Z,20.33
2023-03-04T03:39:55.551Z,20.32
2023-03-04T03:42:22.167Z,20.32
2023-03-04T03:44:50.148Z,20.31
2023-03-04T03:47:16.766Z,20.23
2023-03-04T03:49:43.298Z,20.33
2023-03-04T03:52:10.322Z,20.34
2023-03-04T03:54:36.813Z,20.34
2023-03-04T03:57:03.814Z,20.34
2023-03-04T03:59:30.392Z,20.35
2023-03-04T04:01:57.056Z,20.35
2023-03-04T04:04:23.650Z,20.35
2023-03-04T04:06:50.221Z,20.36
2023-03-04T04:09:16.731Z,20.37
2023-03-04T04:11:43.421Z,20.36
2023-03-04T04:14:13.235Z,20.37
2023-03-04T04:16:40.111Z,20.37
2023-03-04T04:19:06.792Z,20.36
2023-03-04T04:21:33.336Z,20.36
2023-03-04T04:23:59.831Z,20.37
2023-03-04T04:26:26.446Z,20.37
2023-03-04T04:28:52.937Z,20.37
2023-03-04T04:31:19.485Z,20.37
2023-03-04T04:33:46.018Z,20.37
2023-03-04T04:36:16.559Z,20.38
2023-03-04T04:38:43.844Z,20.37
2023-03-04T04:41:23.428Z,20.37
2023-03-04T04:43:50.219Z,20.37
2023-03-04T04:46:17.455Z,20.37
2023-03-04T04:48:44.765Z,20.36
2023-03-04T04:51:11.820Z,20.36
2023-03-04T04:53:38.874Z,20.29
2023-03-04T04:56:13.324Z,20.33
2023-03-04T04:58:40.266Z,20.36
2023-03-04T05:01:07.355Z,20.32
2023-03-04T05:03:35.469Z,20.37
2023-03-04T05:06:02.722Z,20.32
2023-03-04T05:08:29.387Z,20.36
2023-03-04T05:10:56.029Z,20.33
2023-03-04T05:13:22.871Z,20.35
2023-03-04T05:15:52.161Z,20.36
2023-03-04T05:18:19.825Z,20.35
2023-03-04T05:20:50.727Z,20.29
2023-03-04T05:23:17.338Z,20.35
2023-03-04T05:25:43.928Z,20.24
2023-03-04T05:28:13.118Z,20.35
2023-03-04T05:30:41.078Z,20.36
2023-03-04T05:33:08.929Z,20.36
2023-03-04T05:35:36.860Z,20.35
2023-03-04T05:38:08.713Z,20.36
2023-03-04T05:40:35.697Z,20.36
2023-03-04T05:43:02.290Z,20.34
2023-03-04T05:45:29.157Z,20.35
2023-03-04T05:47:56.073Z,20.35
2023-03-04T05:50:23.438Z,20.33
2023-03-04T05:52:53.155Z,20.24
2023-03-04T05:55:20.045Z,20.34
2023-03-04T05:57:46.930Z,20.33
2023-03-04T06:00:15.637Z,20.34
2023-03-04T06:02:42.894Z,20.33
2023-03-04T06:05:11.511Z,20.33
2023-03-04T06:07:38.155Z,20.23
2023-03-04T06:10:05.527Z,20.32
2023-03-04T06:12:32.267Z,20.31
2023-03-04T06:14:58.882Z,20.31
2023-03-04T06:17:25.387Z,20.30
2023-03-04T06:19:51.909Z,20.29
2023-03-04T06:22:18.461Z,20.28
2023-03-04T06:24:45.030Z,20.27
2023-03-04T06:27:11.533Z,20.30
2023-03-04T06:29:38.191Z,20.29
2023-03-04T06:32:05.474Z,20.29
2023-03-04T06:34:33.684Z,20.29
2023-03-04T06:37:00.728Z,20.28
2023-03-04T06:39:27.398Z,20.28
2023-03-04T06:41:53.903Z,20.26
2023-03-04T06:44:20.674Z,20.28
2023-03-04T06:46:47.194Z,20.28
2023-03-04T06:49:13.841Z,20.30
2023-03-04T06:51:40.384Z,20.28
2023-03-04T06:54:06.956Z,20.28
2023-03-04T06:56:33.481Z,20.28
2023-03-04T06:59:00.040Z,20.28
2023-03-04T07:01:28.206Z,20.28
2023-03-04T07:03:55.970Z,20.28
2023-03-04T07:06:25.606Z,20.26
2023-03-04T07:08:52.706Z,20.29
2023-03-04T07:11:19.974Z,20.29
2023-03-04T07:13:46.668Z,20.29
2023-03-04T07:16:17.658Z,20.21
2023-03-04T07:18:44.707Z,20.26
2023-03-04T07:21:12.042Z,20.29
2023-03-04T07:23:39.323Z,20.29
2023-03-04T07:26:06.293Z,20.29
2023-03-04T07:28:33.447Z,20.29
2023-03-04T07:31:30.845Z,20.30
2023-03-04T07:33:59.551Z,20.29
2023-03-04T07:36:26.498Z,20.29
2023-03-04T07:38:54.840Z,20.29
2023-03-04T07:41:23.058Z,20.31
2023-03-04T07:43:49.868Z,20.29
2023-03-04T07:46:16.560Z,20.31
2023-03-04T07:48:43.523Z,20.33
2023-03-04T07:51:21.977Z,20.31
2023-03-04T07:53:51.714Z,20.33
2023-03-04T07:56:21.138Z,20.34
2023-03-04T07:58:48.739Z,20.33
2023-03-04T08:01:18.849Z,20.34
2023-03-04T08:03:46.928Z,20.35
2023-03-04T08:06:15.652Z,20.34
2023-03-04T08:08:43.113Z,20.34
2023-03-04T08:11:19.429Z,20.34
2023-03-04T08:13:46.788Z,20.33
2023-03-04T08:16:17.711Z,20.33
2023-03-04T08:18:45.634Z,20.32
2023-03-04T08:21:13.121Z,20.29
2023-03-04T08:23:40.840Z,20.30
2023-03-04T08:26:13.495Z,20.29
2023-03-04T08:28:40.273Z,20.29
2023-03-04T08:31:07.025Z,20.27
2023-03-04T08:33:34.331Z,20.27
2023-03-04T08:36:00.911Z,20.24
2023-03-04T08:38:27.547Z,20.24
2023-03-04T08:40:55.408Z,19.92
2023-03-04T08:43:23.223Z,20.23
2023-03-04T08:45:49.864Z,20.20
2023-03-04T08:48:17.873Z,20.22
2023-03-04T08:50:47.154Z,20.20
2023-03-04T08:53:14.372Z,20.20
2023-03-04T08:55:42.086Z,20.11
2023-03-04T08:58:11.956Z,20.20
2023-03-04T09:00:43.009Z,20.19
2023-03-04T09:03:12.066Z,20.19
2023-03-04T09:05:39.109Z,20.18
2023-03-04T09:08:07.147Z,20.18
2023-03-04T09:10:34.015Z,20.18
2023-03-04T09:13:01.686Z,20.17
2023-03-04T09:15:28.441Z,20.17
2023-03-04T09:17:55.163Z,20.15
2023-03-04T09:20:23.077Z,20.15
2023-03-04T09:22:52.622Z,20.14
2023-03-04T09:25:19.535Z,20.14
2023-03-04T09:27:46.127Z,20.10
2023-03-04T09:30:13.368Z,20.14
2023-03-04T09:32:41.335Z,20.08
2023-03-04T09:35:09.985Z,20.08
2023-03-04T09:37:39.206Z,20.12
2023-03-04T09:40:09.904Z,20.11
2023-03-04T09:42:48.544Z,20.10
2023-03-04T09:45:21.453Z,20.10
2023-03-04T09:47:51.573Z,20.10
2023-03-04T09:50:19.912Z,20.10
2023-03-04T09:53:05.171Z,20.09
2023-03-04T09:55:37.210Z,20.09
2023-03-04T09:58:37.453Z,20.08
2023-03-04T10:01:20.436Z,20.07
2023-03-04T10:03:53.305Z,20.06
2023-03-04T10:06:22.009Z,20.07
2023-03-04T10:09:01.612Z,20.09
2023-03-04T10:11:34.012Z,20.13
2023-03-04T10:14:04.753Z,20.19
2023-03-04T10:17:24.566Z,20.26
2023-03-04T10:20:09.842Z,20.30
2023-03-04T10:22:43.946Z,20.02
2023-03-04T10:25:29.519Z,20.39
2023-03-04T10:28:04.890Z,20.42
2023-03-04T10:31:13.489Z,20.43
2023-03-04T10:33:41.063Z,20.46
2023-03-04T10:36:25.962Z,20.47
2023-03-04T10:39:00.022Z,20.47
2023-03-04T10:41:29.332Z,20.47
2023-03-04T10:44:04.171Z,20.45
2023-03-04T10:46:31.855Z,20.45
2023-03-04T10:48:59.090Z,20.44
2023-03-04T10:51:28.938Z,20.43
2023-03-04T10:54:05.447Z,20.32
2023-03-04T10:56:38.984Z,20.42
2023-03-04T10:59:33.480Z,20.41
2023-03-04T11:02:02.600Z,20.40
2023-03-04T11:04:34.332Z,20.39
2023-03-04T11:07:00.999Z,20.39
2023-03-04T11:09:32.134Z,20.38
2023-03-04T11:12:04.746Z,20.37
2023-03-04T11:14:39.617Z,20.38
2023-03-04T11:17:29.138Z,20.39
2023-03-04T11:20:18.334Z,20.38
2023-03-04T11:22:49.863Z,20.33
2023-03-04T11:26:02.618Z,20.37
2023-03-04T11:28:52.453Z,20.37
2023-03-04T11:31:23.543Z,20.36
2023-03-04T11:34:02.228Z,20.36
2023-03-04T11:36:50.830Z,20.36
2023-03-04T11:39:24.345Z,20.35
2023-03-04T11:42:24.545Z,20.34
2023-03-04T11:44:52.505Z,20.33
2023-03-04T11:47:50.798Z,20.33
2023-03-04T11:50:27.520Z,20.32
2023-03-04T11:53:03.287Z,20.33
2023-03-04T11:55:39.530Z,20.32
2023-03-04T11:58:18.300Z,20.32
2023-03-04T12:01:25.468Z,20.32
2023-03-04T12:04:01.327Z,20.32
2023-03-04T12:07:02.132Z,20.30
2023-03-04T12:09:41.746Z,20.31
2023-03-04T12:12:29.554Z,20.29
2023-03-04T12:15:08.081Z,20.21
2023-03-04T12:17:40.507Z,20.29
2023-03-04T12:20:34.977Z,20.29
2023-03-04T12:23:27.040Z,20.29
2023-03-04T12:26:30.902Z,20.28
2023-03-04T12:28:57.785Z,20.28
2023-03-04T12:31:39.488Z,20.28
2023-03-04T12:34:24.885Z,20.27
2023-03-04T12:37:26.759Z,20.28
2023-03-04T12:40:08.348Z,20.25
2023-03-04T12:43:11.159Z,20.27
2023-03-04T12:45:52.633Z,20.17
2023-03-04T12:48:33.521Z,20.26
2023-03-04T12:51:09.726Z,20.25
2023-03-04T12:53:51.035Z,20.20
2023-03-04T12:56:33.246Z,20.25
2023-03-04T12:59:00.435Z,20.26
2023-03-04T13:01:37.555Z,20.23
2023-03-04T13:04:34.337Z,20.28
2023-03-04T13:07:22.666Z,20.28
2023-03-04T13:09:57.376Z,20.28
2023-03-04T13:12:24.966Z,20.29
2023-03-04T13:15:09.581Z,20.32
2023-03-04T13:17:46.450Z,20.34
2023-03-04T13:20:31.115Z,20.37
2023-03-04T13:23:05.321Z,20.40
2023-03-04T13:25:44.114Z,20.38
2023-03-04T13:28:11.049Z,20.44
2023-03-04T13:30:40.459Z,20.47
2023-03-04T13:33:13.528Z,20.49
2023-03-04T13:35:51.407Z,20.51
2023-03-04T13:38:34.966Z,20.51
2023-03-04T13:41:20.043Z,20.51
2023-03-04T13:43:54.388Z,20.51
2023-03-04T13:46:21.075Z,20.51
2023-03-04T13:48:50.554Z,20.51
2023-03-04T13:51:30.476Z,20.51
2023-03-04T13:53:59.996Z,20.52
2023-03-04T13:56:28.920Z,20.53
2023-03-04T13:59:07.553Z,20.54
2023-03-04T14:01:45.968Z,20.54
2023-03-04T14:04:21.534Z,20.54
2023-03-04T14:06:49.816Z,20.52
2023-03-04T14:09:23.222Z,20.51
2023-03-04T14:11:52.522Z,20.50
2023-03-04T14:14:24.469Z,20.46
2023-03-04T14:16:56.139Z,20.47
2023-03-04T14:19:43.907Z,20.35
2023-03-04T14:22:28.013Z,20.44
2023-03-04T14:25:13.095Z,20.42
2023-03-04T14:27:40.076Z,20.41
2023-03-04T14:30:26.112Z,20.38
2023-03-04T14:33:02.276Z,20.38
2023-03-04T14:35:31.116Z,20.38
2023-03-04T14:38:07.274Z,20.36
2023-03-04T14:40:40.486Z,20.36
2023-03-04T14:43:16.202Z,20.35
2023-03-04T14:45:44.854Z,20.34
2023-03-04T14:48:20.469Z,20.34
2023-03-04T14:50:51.611Z,20.33
2023-03-04T14:53:21.587Z,20.33
2023-03-04T14:56:08.658Z,20.33
2023-03-04T14:58:51.344Z,20.32
2023-03-04T15:01:23.305Z,20.21
2023-03-04T15:04:00.637Z,20.30
2023-03-04T15:06:33.198Z,20.29
2023-03-04T15:09:02.028Z,20.24
2023-03-04T15:11:45.920Z,20.27
2023-03-04T15:14:43.369Z,20.26
2023-03-04T15:17:33.874Z,20.27
2023-03-04T15:20:00.450Z,20.25
2023-03-04T15:22:27.271Z,20.26
2023-03-04T15:24:53.938Z,20.25
2023-03-04T15:27:24.125Z,20.24
2023-03-04T15:29:55.877Z,20.16
2023-03-04T15:32:27.181Z,20.23
2023-03-04T15:34:53.827Z,20.23
2023-03-04T15:37:26.963Z,20.23
2023-03-04T15:39:56.310Z,20.22
2023-03-04T15:42:23.261Z,20.22
2023-03-04T15:44:50.134Z,20.20
2023-03-04T15:47:16.714Z,20.21
2023-03-04T15:49:44.571Z,20.20
2023-03-04T15:52:18.795Z,20.19
2023-03-04T15:54:46.495Z,20.21
2023-03-04T15:57:31.675Z,20.21
2023-03-04T15:59:58.363Z,20.22
2023-03-04T16:02:30.503Z,20.22
2023-03-04T16:04:57.191Z,20.22
2023-03-04T16:07:28.473Z,20.16
2023-03-04T16:10:02.503Z,20.22
2023-03-04T16:12:29.294Z,20.22
2023-03-04T16:14:56.160Z,20.21
2023-03-04T16:17:22.796Z,20.23
2023-03-04T16:19:49.383Z,20.22
2023-03-04T16:22:19.775Z,20.23
2023-03-04T16:24:49.255Z,20.22
2023-03-04T16:27:17.882Z,20.21
2023-03-04T16:29:44.694Z,20.21
2023-03-04T16:32:14.143Z,20.22
2023-03-04T16:34:40.913Z,20.21
2023-03-04T16:37:13.913Z,20.21
2023-03-04T16:39:45.977Z,20.18
2023-03-04T16:42:16.037Z,20.20
2023-03-04T16:44:43.120Z,20.19
2023-03-04T16:47:09.685Z,20.19
2023-03-04T16:49:36.420Z,20.18
2023-03-04T16:52:03.408Z,20.19
2023-03-04T16:54:33.129Z,20.18
2023-03-04T16:57:01.139Z,20.17
2023-03-04T16:59:28.953Z,20.18
2023-03-04T17:01:56.193Z,20.18
2023-03-04T17:04:23.030Z,20.17
2023-03-04T17:06:49.767Z,20.17
2023-03-04T17:09:16.426Z,20.17
2023-03-04T17:11:43.158Z,20.17
2023-03-04T17:14:09.851Z,20.17
2023-03-04T17:16:36.533Z,20.16
2023-03-04T17:19:03.211Z,20.17
2023-03-04T17:21:29.744Z,20.16
2023-03-04T17:23:56.339Z,20.18
2023-03-04T17:26:23.048Z,20.21
2023-03-04T17:28:50.662Z,20.25
2023-03-04T17:33:30.203Z,20.29
2023-03-04T17:35:58.248Z,20.33
2023-03-04T17:38:24.837Z,20.36
2023-03-04T17:40:51.650Z,20.39
2023-03-04T17:43:20.814Z,20.42
2023-03-04T17:45:50.210Z,20.46
2023-03-04T17:48:16.982Z,20.49
2023-03-04T17:50:50.847Z,20.51
2023-03-04T17:53:20.648Z,20.55
2023-03-04T17:55:55.737Z,20.57
2023-03-04T17:58:26.073Z,20.59
2023-03-04T18:00:55.665Z,20.55
2023-03-04T18:03:23.483Z,20.61
2023-03-04T18:05:50.098Z,20.66
2023-03-04T18:08:16.678Z,20.69
2023-03-04T18:10:43.391Z,20.70
2023-03-04T18:13:10.126Z,20.73
2023-03-04T18:15:36.771Z,20.75
2023-03-04T18:18:03.635Z,20.77
2023-03-04T18:20:30.205Z,20.78
2023-03-04T18:22:58.661Z,20.81
2023-03-04T18:25:28.403Z,20.85
2023-03-04T18:27:54.950Z,20.86
2023-03-04T18:30:27.140Z,20.88
2023-03-04T18:32:56.080Z,20.89
2023-03-04T18:35:25.858Z,20.91
2023-03-04T18:37:52.535Z,20.93
2023-03-04T18:40:19.222Z,20.93
2023-03-04T18:42:45.942Z,20.96
2023-03-04T18:45:13.712Z,20.98
2023-03-04T18:47:43.882Z,20.99
2023-03-04T18:50:10.920Z,21.00
2023-03-04T18:52:37.661Z,21.02
2023-03-04T18:55:04.662Z,21.03
2023-03-04T18:57:31.659Z,20.96
2023-03-04T19:00:00.435Z,21.04
2023-03-04T19:02:56.005Z,21.05
2023-03-04T19:05:27.504Z,20.97
2023-03-04T19:07:54.448Z,20.96
2023-03-04T19:10:21.856Z,21.07
2023-03-04T19:12:48.617Z,21.08
2023-03-04T19:15:18.573Z,21.09
2023-03-04T19:17:47.799Z,21.10
2023-03-04T19:20:16.064Z,21.07
2023-03-04T19:22:43.304Z,21.08
2023-03-04T19:25:10.355Z,21.13
2023-03-04T19:27:37.048Z,21.09
2023-03-04T19:32:20.321Z,21.15
2023-03-04T19:34:47.539Z,21.16
2023-03-04T19:37:15.405Z,21.18
2023-03-04T19:39:46.082Z,21.18
2023-03-04T19:42:13.298Z,21.19
2023-03-04T19:44:44.719Z,21.19
2023-03-04T19:47:11.552Z,21.20
2023-03-04T19:49:40.117Z,21.21
2023-03-04T19:52:15.163Z,21.21
2023-03-04T19:54:43.977Z,21.22
2023-03-04T19:57:10.650Z,21.23
2023-03-04T19:59:40.358Z,21.23
2023-03-04T20:02:08.273Z,21.16
2023-03-04T20:04:38.353Z,21.24
2023-03-04T20:07:05.017Z,21.26
2023-03-04T20:09:32.120Z,21.26
2023-03-04T20:11:59.599Z,21.25
2023-03-04T20:14:27.007Z,21.27
2023-03-04T20:16:53.781Z,21.27
2023-03-04T20:19:20.601Z,21.26
2023-03-04T20:21:47.250Z,21.22
2023-03-04T20:24:15.122Z,21.25
2023-03-04T20:26:42.293Z,21.26
2023-03-04T20:29:16.589Z,21.26
2023-03-04T20:31:59.318Z,21.26
2023-03-04T20:34:27.101Z,21.26
2023-03-04T20:36:53.894Z,21.24
2023-03-04T20:39:29.786Z,21.28
2023-03-04T20:41:58.386Z,21.28
2023-03-04T20:44:29.130Z,21.28
2023-03-04T20:46:58.559Z,21.27
2023-03-04T20:49:31.580Z,21.31
2023-03-04T20:52:09.130Z,21.31
2023-03-04T20:54:38.644Z,21.31
2023-03-04T20:57:08.531Z,21.32
2023-03-04T20:59:39.755Z,21.33
2023-03-04T21:02:14.916Z,21.35
2023-03-04T21:04:41.872Z,21.36
2023-03-04T21:07:12.628Z,21.37
2023-03-04T21:09:43.790Z,21.29
2023-03-04T21:12:12.746Z,21.39
2023-03-04T21:14:39.990Z,21.39
2023-03-04T21:17:07.308Z,21.35
2023-03-04T21:19:38.047Z,21.41
2023-03-04T21:22:04.787Z,21.41
2023-03-04T21:24:34.221Z,21.42
2023-03-04T21:27:01.583Z,21.43
2023-03-04T21:29:28.217Z,21.44
2023-03-04T21:31:58.119Z,21.44
2023-03-04T21:34:29.507Z,21.36
2023-03-04T21:36:56.573Z,21.40
2023-03-04T21:39:24.968Z,21.45
2023-03-04T21:41:52.003Z,21.46
2023-03-04T21:44:28.476Z,21.46
2023-03-04T21:47:01.174Z,21.47
2023-03-04T21:49:28.473Z,21.47
2023-03-04T21:51:55.160Z,21.47
2023-03-04T21:54:21.872Z,21.41
2023-03-04T21:56:50.137Z,21.49
2023-03-04T21:59:20.006Z,21.40
2023-03-04T22:01:46.819Z,21.49
2023-03-04T22:04:13.508Z,21.49
2023-03-04T22:06:41.457Z,21.50
2023-03-04T22:09:08.400Z,21.49
2023-03-04T22:11:35.098Z,21.50
2023-03-04T22:14:02.853Z,21.51
2023-03-04T22:16:30.615Z,21.52
2023-03-04T22:18:57.618Z,21.52
2023-03-04T22:21:24.258Z,21.53
2023-03-04T22:23:51.196Z,21.53
2023-03-04T22:26:29.846Z,21.55
2023-03-04T22:28:56.671Z,21.54
2023-03-04T22:31:30.338Z,21.54
2023-03-04T22:33:56.917Z,21.55
2023-03-04T22:36:23.775Z,21.55
2023-03-04T22:38:50.968Z,21.54
2023-03-04T22:41:19.748Z,21.55
2023-03-04T22:43:50.202Z,21.53
2023-03-04T22:46:24.835Z,21.56
2023-03-04T22:48:53.076Z,21.53
2023-03-04T22:51:20.704Z,21.56
2023-03-04T22:53:48.521Z,21.56
2023-03-04T22:56:15.683Z,21.49
2023-03-04T22:58:44.757Z,21.56
2023-03-04T23:01:13.296Z,21.56
2023-03-04T23:03:41.494Z,21.55
2023-03-04T23:06:17.600Z,21.55
2023-03-04T23:08:46.530Z,21.56
2023-03-04T23:11:21.058Z,21.56
2023-03-04T23:13:50.218Z,21.55
2023-03-04T23:16:18.135Z,21.55
2023-03-04T23:18:48.927Z,21.56
2023-03-04T23:21:21.670Z,21.56
2023-03-04T23:23:48.994Z,21.55
2023-03-04T23:26:24.777Z,21.55
2023-03-04T23:28:54.253Z,21.54
2023-03-04T23:31:20.814Z,21.54
2023-03-04T23:33:48.420Z,21.54
2023-03-04T23:36:18.572Z,21.54
2023-03-04T23:38:47.741Z,21.54
2023-03-04T23:41:17.554Z,21.53
2023-03-04T23:43:44.384Z,21.52
2023-03-04T23:46:14.129Z,21.48
2023-03-04T23:48:46.357Z,21.53
2023-03-04T23:51:18.078Z,21.53
2023-03-04T23:53:45.573Z,21.52
2023-03-04T23:56:17.770Z,21.51
2023-03-04T23:58:44.541Z,21.51
